Moscow, Russia
Current Conditions -  °F | °C
As of 11:30 AM on Sunday 23 Nov 2014 (Local Time) from UUWW Reporting Station
Clear Clear  
Wind Chill: 21°   Ceiling: Unl
Heat Index: 27°   Visibility: 6mi
Dew Point: 14°   Wind: 4mph
Humidity: 59%   Direction: NA
Pressure: 30.45"   Gusts: NA
Location:  55.75°N, 37.62°E
Report Text: UUWW 230830Z VRB02MPS CAVOK M03/M10 Q1031 24190060 NOSIG
Loading
Personal Weather Stations






























Interactive Weather Map New forecast layout! Learn more

10-Day Weather Forecast

Advertisements
Track Severe Weather on mobile